Time;durP1;ratioP1;P1;durP2;ratioP2;P2;SDS_P1;SDS_P2;PMS_P1;PMS_P2;Temp;Humidity;BMP_temperature;BMP_pressure;BME280_temperature;BME280_humidity;BME280_pressure;Samples;Min_cycle;Max_cycle;Signal;HPM_P1;HPM_P2
2023/01/29 00:01:03;;;;;;;18.97;10.27;;;;;;;5.28;65.57;99634.22;5053679;28;20652;-53
2023/01/29 00:03:30;;;;;;;13.87;10.50;;;;;;;5.24;66.55;99622.19;5053992;28;20186;-52
2023/01/29 00:05:58;;;;;;;17.58;12.88;;;;;;;5.32;65.83;99630.13;5052655;28;20423;-52
2023/01/29 00:08:25;;;;;;;13.63;10.67;;;;;;;5.10;65.48;99582.59;5053661;28;20202;-52
2023/01/29 00:10:52;;;;;;;13.13;10.47;;;;;;;5.40;65.23;99628.75;5053385;28;20203;-52
2023/01/29 00:13:18;;;;;;;18.63;10.60;;;;;;;5.38;64.54;99634.59;5053937;28;20196;-53
2023/01/29 00:15:54;;;;;;;19.17;12.23;;;;;;;5.36;65.55;99632.84;5053778;28;20627;-54
2023/01/29 00:18:21;;;;;;;18.00;11.37;;;;;;;5.33;65.51;99630.16;5053654;28;20282;-53
2023/01/29 00:20:48;;;;;;;15.67;11.27;;;;;;;5.37;65.46;99646.44;5053634;28;20195;-53
2023/01/29 00:23:16;;;;;;;12.90;10.67;;;;;;;5.35;65.01;99636.22;5053508;28;20200;-54
2023/01/29 00:25:44;;;;;;;12.93;10.13;;;;;;;5.36;65.38;99640.47;5046938;28;20631;-52
2023/01/29 00:28:11;;;;;;;12.73;9.23;;;;;;;5.36;65.67;99639.59;5036680;28;20207;-53
2023/01/29 00:30:38;;;;;;;16.13;9.67;;;;;;;5.36;65.78;99643.03;5039423;28;20198;-54
2023/01/29 00:33:06;;;;;;;12.13;9.57;;;;;;;5.38;65.37;99656.69;5052555;28;20196;-53
2023/01/29 00:35:34;;;;;;;12.07;9.77;;;;;;;5.38;65.63;99651.59;5049906;28;20195;-54
2023/01/29 00:38:01;;;;;;;13.73;9.40;;;;;;;5.32;65.13;99651.38;5044013;28;20238;-53
2023/01/29 00:44:56;;;;;;;11.63;9.23;;;;;;;5.24;65.80;99652.75;5041891;28;20576;-53
2023/01/29 00:46:06;;;;;;;14.07;10.17;;;;;;;5.30;66.81;99658.06;5033364;28;20701;-53
2023/01/29 00:48:33;;;;;;;10.40;8.53;;;;;;;5.30;66.19;99655.50;5037585;28;20668;-53
2023/01/29 00:51:00;;;;;;;13.67;9.57;;;;;;;5.24;65.82;99651.88;5042907;28;20550;-53
2023/01/29 00:53:27;;;;;;;13.83;10.40;;;;;;;5.24;66.53;99656.97;5046582;28;20191;-53
2023/01/29 00:55:55;;;;;;;12.17;8.87;;;;;;;5.20;65.94;99661.06;5051900;28;20599;-51
2023/01/29 00:58:32;;;;;;;11.27;9.37;;;;;;;5.18;66.73;99656.72;5052403;28;20638;-53
2023/01/29 01:01:01;;;;;;;12.23;9.30;;;;;;;5.21;66.72;99655.19;5049510;28;20249;-52
2023/01/29 01:03:27;;;;;;;12.63;9.40;;;;;;;5.16;67.08;99654.13;5040341;28;20737;-53
2023/01/29 01:06:03;;;;;;;11.93;8.83;;;;;;;5.18;66.87;99655.06;5046654;28;20199;-54
2023/01/29 01:11:15;;;;;;;12.67;9.30;;;;;;;5.15;66.78;99654.06;5052903;28;20203;-53
2023/01/29 01:13:42;;;;;;;11.90;9.03;;;;;;;4.97;66.85;99623.63;5052586;28;20599;-53
2023/01/29 01:16:10;;;;;;;14.20;10.03;;;;;;;5.14;66.73;99658.25;5050207;28;20194;-53
2023/01/29 01:18:37;;;;;;;13.83;10.30;;;;;;;5.12;67.02;99659.00;5042295;28;20223;-53
2023/01/29 01:21:04;;;;;;;10.23;8.80;;;;;;;5.08;66.78;99658.00;5032373;28;20191;-54
2023/01/29 01:23:31;;;;;;;13.50;10.00;;;;;;;5.07;67.58;99658.84;5047822;28;20185;-53
2023/01/29 01:25:58;;;;;;;13.03;9.73;;;;;;;5.04;68.18;99662.94;5052412;28;20254;-53
2023/01/29 01:28:26;;;;;;;13.63;9.27;;;;;;;5.05;67.63;99657.94;5051661;28;20186;-53
2023/01/29 01:30:53;;;;;;;12.90;9.87;;;;;;;5.03;67.37;99662.06;5051775;28;20191;-54
2023/01/29 01:33:20;;;;;;;13.20;9.57;;;;;;;5.10;67.56;99668.28;5052063;28;20243;-53
2023/01/29 01:35:46;;;;;;;12.30;9.97;;;;;;;5.06;67.23;99659.63;5051844;28;20323;-53
2023/01/29 01:38:13;;;;;;;14.13;10.07;;;;;;;5.06;67.67;99669.81;5052589;28;20215;-54
2023/01/29 01:40:45;;;;;;;13.27;9.67;;;;;;;5.09;67.32;99663.97;5051921;28;20198;-53
2023/01/29 01:43:15;;;;;;;13.53;10.07;;;;;;;5.08;67.87;99663.09;5052263;28;20247;-53
2023/01/29 01:45:45;;;;;;;12.27;9.57;;;;;;;5.13;67.69;99655.69;5052416;28;20194;-52
2023/01/29 01:48:31;;;;;;;13.73;10.03;;;;;;;5.09;67.39;99656.34;5039878;28;20252;-53
2023/01/29 01:51:02;;;;;;;11.70;8.63;;;;;;;4.95;67.56;99630.31;5037666;28;20195;-53
2023/01/29 01:53:37;;;;;;;13.23;9.60;;;;;;;5.08;67.41;99655.47;5040191;28;20680;-53
2023/01/29 01:56:09;;;;;;;10.57;8.87;;;;;;;5.10;67.36;99663.19;5050183;28;20200;-53
2023/01/29 01:58:40;;;;;;;10.93;9.27;;;;;;;5.07;67.54;99663.06;5050279;28;20218;-53
2023/01/29 02:01:10;;;;;;;11.70;9.37;;;;;;;5.03;68.24;99667.16;5047056;28;20260;-54
2023/01/29 02:09:34;;;;;;;12.90;9.47;;;;;;;5.07;68.68;99658.84;5049672;28;20317;-54
2023/01/29 02:12:09;;;;;;;12.70;9.47;;;;;;;5.13;68.43;99653.13;5052143;28;20195;-53
2023/01/29 02:14:39;;;;;;;12.57;10.73;;;;;;;5.27;67.35;99663.03;5044113;28;20451;-54
2023/01/29 02:17:09;;;;;;;14.03;10.33;;;;;;;5.29;66.98;99666.53;5043711;28;20208;-53
2023/01/29 02:19:48;;;;;;;13.17;9.73;;;;;;;5.38;67.29;99678.78;5051262;28;20195;-53
2023/01/29 02:22:37;;;;;;;14.30;9.67;;;;;;;5.30;67.12;99677.59;5052208;28;20256;-53
2023/01/29 02:25:18;;;;;;;12.67;9.90;;;;;;;5.29;66.80;99675.84;5043134;28;20198;-53
2023/01/29 02:28:12;;;;;;;12.17;9.50;;;;;;;5.33;67.35;99688.75;5031409;28;20290;-53
2023/01/29 02:30:47;;;;;;;12.17;9.97;;;;;;;5.22;67.53;99681.50;5035694;28;20216;-53
2023/01/29 02:33:26;;;;;;;12.67;9.40;;;;;;;5.27;66.91;99685.97;5051044;28;20572;-53
2023/01/29 02:36:04;;;;;;;13.70;10.73;;;;;;;5.29;67.68;99692.00;5049919;28;20714;-53
2023/01/29 02:38:40;;;;;;;11.10;9.50;;;;;;;5.13;67.52;99660.78;5049614;28;20643;-54
2023/01/29 02:41:13;;;;;;;11.60;8.93;;;;;;;5.38;67.71;99687.25;5049395;28;20199;-53
2023/01/29 02:43:46;;;;;;;12.23;9.90;;;;;;;5.38;67.61;99693.19;5046000;28;20203;-53
2023/01/29 02:46:19;;;;;;;12.20;9.73;;;;;;;5.39;68.18;99698.31;5048774;28;20194;-53
2023/01/29 02:48:53;;;;;;;15.17;9.67;;;;;;;5.28;68.80;99695.34;5051262;28;20659;-52
2023/01/29 02:51:26;;;;;;;12.17;10.47;;;;;;;5.28;68.76;99694.47;5051817;28;20246;-52
2023/01/29 02:54:01;;;;;;;12.97;10.47;;;;;;;5.29;69.06;99698.78;5052332;28;20227;-52
2023/01/29 02:56:35;;;;;;;14.60;10.50;;;;;;;5.31;69.48;99697.16;5051179;28;20201;-52
2023/01/29 02:59:08;;;;;;;12.90;10.07;;;;;;;5.32;69.81;99697.22;5051221;28;20224;-53
2023/01/29 03:01:40;;;;;;;13.00;10.83;;;;;;;5.38;69.52;99695.72;5052974;28;20216;-53
2023/01/29 03:04:11;;;;;;;12.33;10.30;;;;;;;5.37;69.43;99694.84;5058326;28;20206;-53
2023/01/29 03:06:43;;;;;;;13.33;10.80;;;;;;;5.36;70.03;99704.16;5055430;28;20273;-53
2023/01/29 03:09:15;;;;;;;12.23;10.27;;;;;;;5.33;70.04;99700.63;5045890;28;20206;-54
2023/01/29 03:11:46;;;;;;;12.47;10.00;;;;;;;5.33;69.73;99703.16;5034905;28;20202;-54
2023/01/29 03:14:18;;;;;;;13.07;10.30;;;;;;;5.27;69.97;99685.97;5035689;28;20214;-53
2023/01/29 03:16:50;;;;;;;13.03;10.37;;;;;;;5.29;70.35;99704.75;5035394;28;20620;-52
2023/01/29 03:19:20;;;;;;;10.70;9.00;;;;;;;5.31;70.38;99702.25;5034837;28;20216;-53
2023/01/29 03:21:54;;;;;;;11.93;9.87;;;;;;;5.16;69.12;99684.69;5035115;28;20190;-52
2023/01/29 03:32:52;;;;;;;12.17;10.47;;;;;;;5.13;68.85;99714.25;5034662;28;20195;-52
2023/01/29 03:35:32;;;;;;;11.57;9.60;;;;;;;5.13;69.28;99710.03;5034268;28;20253;-52
2023/01/29 03:38:00;;;;;;;10.97;9.47;;;;;;;5.12;70.10;99715.03;5034643;28;20345;-53
2023/01/29 03:40:28;;;;;;;12.03;9.97;;;;;;;5.14;69.53;99726.16;5034393;28;20199;-52
2023/01/29 03:43:06;;;;;;;13.07;10.10;;;;;;;5.01;69.39;99706.09;5034663;28;20250;-53
2023/01/29 03:45:41;;;;;;;14.00;9.97;;;;;;;5.03;69.62;99727.38;5034741;28;20188;-52
2023/01/29 03:48:16;;;;;;;11.90;9.90;;;;;;;5.02;70.02;99723.13;5034138;28;20201;-53
2023/01/29 03:50:54;;;;;;;13.00;10.07;;;;;;;5.08;70.20;99731.88;5034447;28;20530;-52
2023/01/29 03:53:25;;;;;;;14.63;11.03;;;;;;;5.02;70.33;99729.09;5034115;28;20194;-52
2023/01/29 03:56:01;;;;;;;13.37;9.77;;;;;;;5.09;70.71;99732.72;5034034;28;20192;-53
2023/01/29 03:58:36;;;;;;;12.60;9.73;;;;;;;5.09;69.92;99738.72;5034825;28;20627;-52
2023/01/29 04:01:14;;;;;;;10.37;9.07;;;;;;;5.10;69.98;99739.59;5034324;28;20298;-51
2023/01/29 04:03:48;;;;;;;11.40;9.40;;;;;;;5.10;70.64;99740.47;5034089;28;20194;-54
2023/01/29 04:06:18;;;;;;;11.17;9.23;;;;;;;5.11;70.49;99739.63;5033916;28;20318;-54
2023/01/29 04:08:51;;;;;;;11.60;9.23;;;;;;;5.12;70.68;99748.16;5033662;28;20664;-52
2023/01/29 04:11:20;;;;;;;9.67;8.43;;;;;;;5.05;70.92;99749.59;5036917;28;20664;-52
2023/01/29 04:13:48;;;;;;;10.60;8.90;;;;;;;5.05;71.33;99748.72;5050582;28;20189;-54
2023/01/29 04:16:26;;;;;;;10.60;8.87;;;;;;;5.03;71.80;99763.03;5053924;28;20273;-54
2023/01/29 04:18:54;;;;;;;9.30;8.30;;;;;;;4.97;71.62;99766.19;5054004;28;20215;-54
2023/01/29 04:21:21;;;;;;;9.73;7.67;;;;;;;4.84;72.64;99758.84;5053937;28;20195;-53
2023/01/29 04:23:48;;;;;;;12.50;8.57;;;;;;;4.87;73.59;99764.06;5053300;28;20651;-53
2023/01/29 04:26:41;;;;;;;11.30;8.67;;;;;;;4.97;73.10;99765.34;5053516;28;20185;-53
2023/01/29 04:29:20;;;;;;;10.03;8.27;;;;;;;4.96;73.56;99761.91;5053250;28;20253;-52
2023/01/29 04:32:09;;;;;;;11.93;9.13;;;;;;;5.03;73.44;99778.31;5040678;28;20570;-52
2023/01/29 04:34:51;;;;;;;9.67;8.67;;;;;;;5.02;73.50;99769.81;5050077;28;20200;-52
2023/01/29 04:37:26;;;;;;;10.23;8.10;;;;;;;5.07;74.08;99770.88;5032967;28;20222;-52
2023/01/29 04:39:59;;;;;;;12.07;9.47;;;;;;;5.08;73.65;99777.69;5033902;28;20266;-51
2023/01/29 04:42:31;;;;;;;12.37;9.70;;;;;;;5.01;74.14;99774.84;5041898;28;20210;-56
2023/01/29 04:45:06;;;;;;;10.37;8.47;;;;;;;5.05;74.12;99771.63;5032997;28;20717;-53
2023/01/29 04:47:39;;;;;;;9.67;8.43;;;;;;;4.81;74.95;99732.41;5033291;28;20193;-54
2023/01/29 04:50:14;;;;;;;11.13;8.30;;;;;;;5.04;75.91;99769.88;5033029;28;20199;-52
2023/01/29 04:52:49;;;;;;;10.57;8.77;;;;;;;4.94;76.59;99785.56;5033415;28;20615;-50
2023/01/29 04:55:24;;;;;;;10.57;8.30;;;;;;;4.88;76.74;99788.72;5032709;28;20203;-52
2023/01/29 04:58:04;;;;;;;9.67;8.57;;;;;;;4.82;77.26;99785.91;5035663;28;20592;-52
2023/01/29 05:00:35;;;;;;;8.57;7.67;;;;;;;4.81;77.93;99786.72;5042983;28;20193;-52
2023/01/29 05:03:08;;;;;;;10.97;8.37;;;;;;;4.76;78.52;99788.19;5052878;28;20561;-52
2023/01/29 05:05:36;;;;;;;9.80;8.37;;;;;;;4.72;79.06;99791.41;5052675;28;20282;-52
2023/01/29 05:08:05;;;;;;;10.77;8.43;;;;;;;4.71;79.31;99794.75;5052417;28;20191;-52
2023/01/29 05:10:33;;;;;;;10.33;8.40;;;;;;;4.71;78.30;99797.31;5052397;28;20197;-51
2023/01/29 05:13:02;;;;;;;10.67;8.90;;;;;;;4.68;79.57;99792.94;5052316;28;20191;-52
2023/01/29 05:15:35;;;;;;;10.30;8.50;;;;;;;4.67;79.85;99801.38;5052825;28;20192;-52
2023/01/29 05:18:07;;;;;;;9.37;8.10;;;;;;;4.62;80.21;99801.97;5052136;28;20191;-52
2023/01/29 05:20:37;;;;;;;10.83;8.60;;;;;;;4.64;80.34;99803.78;5051756;28;20242;-52
2023/01/29 05:23:04;;;;;;;11.33;9.33;;;;;;;4.66;80.76;99792.03;5052208;28;20224;-52
2023/01/29 05:25:34;;;;;;;12.53;8.87;;;;;;;4.74;80.34;99803.41;5051844;28;20671;-52
2023/01/29 05:28:07;;;;;;;11.87;9.87;;;;;;;4.77;79.92;99802.66;5052387;28;20203;-52
2023/01/29 05:30:35;;;;;;;12.73;10.23;;;;;;;4.75;80.77;99806.81;5051941;28;20671;-52
2023/01/29 05:33:05;;;;;;;11.83;10.17;;;;;;;4.71;79.96;99805.81;5032047;28;20207;-52
2023/01/29 05:35:33;;;;;;;13.77;10.30;;;;;;;4.81;80.17;99812.16;5032156;28;20196;-52
2023/01/29 05:38:00;;;;;;;13.43;10.47;;;;;;;4.90;80.88;99817.66;5032145;28;20196;-52
2023/01/29 05:40:27;;;;;;;13.30;10.33;;;;;;;4.88;79.87;99816.72;5032129;28;20191;-52
2023/01/29 05:42:53;;;;;;;13.97;10.40;;;;;;;4.89;79.74;99815.91;5032633;28;20566;-52
2023/01/29 05:45:20;;;;;;;12.97;11.13;;;;;;;4.91;79.72;99816.88;5032164;28;20190;-52
2023/01/29 05:47:48;;;;;;;12.97;10.50;;;;;;;4.92;78.68;99817.72;5032103;28;20191;-52
2023/01/29 05:50:17;;;;;;;12.30;9.27;;;;;;;4.95;78.56;99821.28;5032049;28;20205;-54
2023/01/29 05:52:43;;;;;;;13.20;10.77;;;;;;;4.95;78.19;99821.28;5032218;28;20315;-52
2023/01/29 05:55:11;;;;;;;13.23;10.93;;;;;;;4.96;77.81;99824.69;5031950;28;20199;-52
2023/01/29 05:57:39;;;;;;;14.13;10.43;;;;;;;4.99;77.86;99838.44;5031707;28;20222;-52
2023/01/29 06:00:07;;;;;;;12.43;10.17;;;;;;;5.01;77.59;99835.94;5032051;28;20226;-52
2023/01/29 06:02:34;;;;;;;13.80;10.63;;;;;;;5.02;77.32;99830.06;5031875;28;20187;-52
2023/01/29 06:05:01;;;;;;;13.50;10.30;;;;;;;5.05;77.26;99836.16;5031870;28;20195;-52
2023/01/29 06:07:29;;;;;;;11.40;9.80;;;;;;;5.01;76.88;99830.84;5031785;28;20199;-52
2023/01/29 06:09:56;;;;;;;12.93;10.17;;;;;;;5.00;77.75;99844.41;5031451;28;20190;-52
2023/01/29 06:12:22;;;;;;;12.73;9.47;;;;;;;5.02;77.71;99843.66;5031859;28;20244;-52
2023/01/29 06:14:49;;;;;;;10.93;9.73;;;;;;;5.05;77.70;99848.91;5031885;28;20628;-52
2023/01/29 06:17:16;;;;;;;11.40;9.47;;;;;;;5.00;77.77;99842.69;5031642;28;20264;-52
2023/01/29 06:19:43;;;;;;;12.50;9.63;;;;;;;5.02;78.11;99852.97;5031339;28;20214;-54
2023/01/29 06:22:09;;;;;;;11.17;9.43;;;;;;;4.98;77.62;99848.53;5051061;28;20260;-52
2023/01/29 06:24:38;;;;;;;12.57;9.93;;;;;;;5.00;78.35;99855.44;5051325;28;20189;-52
2023/01/29 06:27:04;;;;;;;11.47;9.53;;;;;;;5.07;77.87;99854.91;5051705;28;20239;-52
2023/01/29 06:29:31;;;;;;;11.27;9.37;;;;;;;5.10;77.43;99864.38;5051710;28;20556;-52
2023/01/29 06:31:58;;;;;;;13.03;10.17;;;;;;;5.11;77.79;99864.41;5051358;28;20197;-51
2023/01/29 06:34:25;;;;;;;11.30;9.10;;;;;;;5.13;77.38;99869.59;5051548;28;20194;-52
2023/01/29 06:36:51;;;;;;;10.97;8.43;;;;;;;5.16;76.75;99868.06;5053254;28;20274;-51
2023/01/29 06:39:18;;;;;;;10.37;8.63;;;;;;;5.17;76.02;99872.31;5056025;28;20231;-52
2023/01/29 06:41:46;;;;;;;10.80;9.18;;;;;;;5.30;75.61;99876.28;5054432;28;20461;-51
2023/01/29 06:44:13;;;;;;;9.57;8.23;;;;;;;5.42;74.57;99881.88;5055536;28;20186;-52
2023/01/29 06:46:40;;;;;;;10.87;8.33;;;;;;;5.44;73.71;99884.53;5055369;28;20195;-54
2023/01/29 06:49:07;;;;;;;9.07;7.83;;;;;;;5.47;73.86;99867.66;5055338;28;20205;-52
2023/01/29 06:51:33;;;;;;;9.60;8.60;;;;;;;5.54;72.63;99877.31;5055087;28;20252;-52
2023/01/29 06:54:00;;;;;;;10.40;8.87;;;;;;;5.60;73.26;99886.91;5055075;28;20185;-53
2023/01/29 06:56:27;;;;;;;8.07;7.03;;;;;;;5.54;72.40;99889.19;5055088;28;20249;-51
2023/01/29 06:58:55;;;;;;;8.97;7.33;;;;;;;5.60;72.07;99892.88;5054905;28;20228;-53
2023/01/29 07:01:22;;;;;;;10.00;7.13;;;;;;;5.54;71.87;99889.19;5055030;28;20197;-53
2023/01/29 07:03:50;;;;;;;10.17;7.73;;;;;;;5.53;72.14;99898.50;5054693;28;20190;-52
2023/01/29 07:06:17;;;;;;;9.33;7.77;;;;;;;5.54;71.46;99900.25;5054855;28;20250;-53
2023/01/29 07:08:43;;;;;;;8.33;7.20;;;;;;;5.63;72.60;99899.78;5055318;28;20191;-52
2023/01/29 07:11:10;;;;;;;7.60;6.73;;;;;;;5.55;71.37;99903.69;5054061;28;20547;-52
2023/01/29 07:13:37;;;;;;;9.50;7.70;;;;;;;5.64;72.84;99904.06;5048428;28;20260;-57
2023/01/29 07:16:06;;;;;;;8.03;6.77;;;;;;;5.61;71.79;99911.56;5054544;28;20659;-52
2023/01/29 07:18:33;;;;;;;8.50;6.97;;;;;;;5.62;71.95;99901.44;5054381;28;20636;-51
2023/01/29 07:21:05;;;;;;;10.60;7.90;;;;;;;5.59;73.03;99911.50;5054119;28;20666;-50
2023/01/29 07:23:32;;;;;;;7.27;6.57;;;;;;;5.12;73.31;99842.38;5054559;28;20223;-51
2023/01/29 07:26:02;;;;;;;8.67;7.40;;;;;;;5.56;74.07;99910.50;5054604;28;20218;-52
2023/01/29 07:28:28;;;;;;;8.87;7.33;;;;;;;5.59;74.58;99915.72;5054480;28;20190;-52
2023/01/29 07:30:56;;;;;;;8.73;7.73;;;;;;;5.68;74.24;99904.25;5054874;28;20199;-52
2023/01/29 07:33:25;;;;;;;7.83;7.03;;;;;;;5.65;73.71;99905.81;5052290;28;20700;-52
2023/01/29 07:35:52;;;;;;;7.93;6.60;;;;;;;5.70;73.23;99910.28;5051700;28;20216;-53
2023/01/29 07:38:19;;;;;;;10.20;6.97;;;;;;;5.79;73.50;99904.72;5054595;28;20200;-52
2023/01/29 07:40:46;;;;;;;9.07;7.27;;;;;;;5.85;72.43;99910.94;5054185;28;20222;-52
2023/01/29 07:43:12;;;;;;;7.60;6.67;;;;;;;5.89;72.13;99912.81;5053985;28;20737;-52
2023/01/29 07:45:40;;;;;;;8.57;6.73;;;;;;;5.92;72.15;99907.84;5051220;28;20190;-51
2023/01/29 07:48:09;;;;;;;6.87;6.03;;;;;;;6.04;72.15;99917.69;5052158;28;20364;-51
2023/01/29 07:50:38;;;;;;;7.37;6.53;;;;;;;5.96;71.79;99919.03;5052917;28;20664;-52
2023/01/29 07:53:05;;;;;;;8.97;7.03;;;;;;;6.01;70.82;99909.91;5054003;28;20306;-51
2023/01/29 07:55:33;;;;;;;9.47;7.07;;;;;;;6.13;71.68;99912.94;5054078;28;20203;-52
2023/01/29 07:58:02;;;;;;;8.07;6.30;;;;;;;6.17;71.43;99919.06;5053658;28;20188;-52
2023/01/29 08:00:29;;;;;;;9.93;7.93;;;;;;;5.83;72.01;99889.59;5053505;28;20223;-53
2023/01/29 08:03:02;;;;;;;7.43;6.40;;;;;;;6.00;72.54;99926.00;5053945;28;20194;-53
2023/01/29 08:05:29;;;;;;;7.17;6.33;;;;;;;5.96;72.45;99929.22;5053646;28;20202;-52
2023/01/29 08:07:57;;;;;;;8.20;6.93;;;;;;;5.82;72.77;99892.09;5053603;28;20197;-53
2023/01/29 08:10:24;;;;;;;8.17;6.70;;;;;;;6.05;72.53;99934.72;5053269;28;20197;-53
2023/01/29 08:12:55;;;;;;;9.23;6.63;;;;;;;5.94;72.76;99931.72;5050979;28;20576;-52
2023/01/29 08:15:21;;;;;;;10.20;6.67;;;;;;;5.96;73.63;99938.59;5053470;28;20195;-54
2023/01/29 08:17:48;;;;;;;6.60;5.90;;;;;;;5.99;73.45;99939.56;5053324;28;20278;-51
2023/01/29 08:20:15;;;;;;;6.77;6.10;;;;;;;6.05;73.69;99931.28;5051727;28;20219;-53
2023/01/29 08:22:42;;;;;;;8.33;6.27;;;;;;;5.92;74.63;99929.94;5052815;28;20195;-53
2023/01/29 08:25:11;;;;;;;7.13;6.23;;;;;;;6.04;75.13;99935.56;5045715;28;20203;-53
2023/01/29 08:27:38;;;;;;;8.20;6.70;;;;;;;5.99;73.96;99934.47;5040670;28;20207;-52
2023/01/29 08:30:06;;;;;;;7.90;6.73;;;;;;;6.19;74.04;99930.19;5053172;28;20199;-51
2023/01/29 08:32:33;;;;;;;7.43;5.97;;;;;;;6.16;73.46;99945.34;5053394;28;20262;-52
2023/01/29 08:34:59;;;;;;;9.47;7.60;;;;;;;6.14;74.99;99942.75;5046668;28;20198;-52
2023/01/29 08:37:26;;;;;;;7.77;6.03;;;;;;;6.28;74.29;99940.75;5041722;28;20230;-53
2023/01/29 08:39:53;;;;;;;10.27;7.50;;;;;;;6.38;73.71;99938.63;5033017;28;20225;-52
2023/01/29 08:42:21;;;;;;;8.47;6.40;;;;;;;6.52;73.48;99942.59;5034061;28;20192;-52
2023/01/29 08:44:48;;;;;;;9.77;6.83;;;;;;;6.60;72.68;99942.91;5052507;28;20189;-53
2023/01/29 08:47:15;;;;;;;9.53;6.67;;;;;;;6.61;71.96;99946.31;5051597;28;20200;-52
2023/01/29 08:49:41;;;;;;;7.60;5.77;;;;;;;6.55;72.25;99962.28;5052366;28;20222;-53
2023/01/29 08:52:08;;;;;;;8.53;6.33;;;;;;;6.48;72.13;99960.31;5052831;28;20192;-52
2023/01/29 08:54:35;;;;;;;8.50;6.77;;;;;;;6.44;72.49;99954.19;5051584;28;20250;-51
2023/01/29 08:57:02;;;;;;;10.30;7.43;;;;;;;6.48;73.41;99952.66;5052557;28;20223;-53
2023/01/29 08:59:30;;;;;;;8.40;7.20;;;;;;;6.61;73.75;99953.97;5051708;28;20219;-52
2023/01/29 09:01:57;;;;;;;8.77;7.70;;;;;;;6.67;73.26;99957.66;5052551;28;20305;-52
2023/01/29 09:04:23;;;;;;;8.17;7.20;;;;;;;6.58;73.25;99948.75;5052429;28;20283;-54
2023/01/29 09:06:50;;;;;;;7.23;6.50;;;;;;;6.64;73.60;99949.00;5052201;28;20202;-54
2023/01/29 09:09:18;;;;;;;7.90;6.77;;;;;;;6.77;73.08;99946.97;5052539;28;20565;-54
2023/01/29 09:11:45;;;;;;;9.80;7.77;;;;;;;6.80;72.26;99947.09;5051830;28;20197;-53
2023/01/29 09:14:13;;;;;;;8.63;7.40;;;;;;;6.90;72.08;99961.94;5052029;28;20191;-54
2023/01/29 09:16:41;;;;;;;8.07;7.27;;;;;;;6.72;72.52;99940.81;5052374;28;20246;-54
2023/01/29 09:19:08;;;;;;;10.87;7.57;;;;;;;6.88;72.81;99949.94;5051875;28;20226;-54
2023/01/29 09:21:35;;;;;;;9.67;7.83;;;;;;;6.96;72.49;99948.53;5052326;28;20277;-54
2023/01/29 09:24:02;;;;;;;8.97;8.00;;;;;;;6.93;72.63;99940.75;5051150;28;20267;-54
2023/01/29 09:26:29;;;;;;;10.87;8.07;;;;;;;6.90;72.38;99941.50;5051972;28;20203;-54
2023/01/29 09:28:56;;;;;;;11.37;9.07;;;;;;;6.92;73.22;99944.16;5051592;28;20191;-54
2023/01/29 09:31:23;;;;;;;9.90;8.10;;;;;;;6.81;73.20;99948.81;5051749;28;20195;-54
2023/01/29 09:33:51;;;;;;;7.40;6.57;;;;;;;6.81;73.17;99942.88;5052398;28;20199;-54
2023/01/29 09:36:18;;;;;;;12.60;7.37;;;;;;;6.71;73.66;99948.41;5051612;28;20230;-54
2023/01/29 09:38:45;;;;;;;7.77;6.93;;;;;;;6.71;74.23;99944.19;5051583;28;20195;-54
2023/01/29 09:41:26;;;;;;;9.00;8.10;;;;;;;6.74;73.70;99940.88;5051501;28;20573;-54
2023/01/29 09:43:57;;;;;;;8.67;7.33;;;;;;;6.72;73.41;99933.16;5051634;28;20248;-55
2023/01/29 09:46:32;;;;;;;9.97;7.87;;;;;;;6.85;73.52;99937.03;5051827;28;20190;-54
2023/01/29 09:49:06;;;;;;;11.40;8.23;;;;;;;6.96;73.06;99938.31;5051322;28;20212;-55
2023/01/29 09:51:40;;;;;;;8.23;7.30;;;;;;;6.93;71.99;99930.53;5052175;28;20199;-55
2023/01/29 09:54:16;;;;;;;13.50;7.67;;;;;;;6.81;72.67;99930.09;5051705;28;20195;-54
2023/01/29 09:56:45;;;;;;;9.53;7.20;;;;;;;6.76;72.24;99922.25;5051482;28;20663;-55
2023/01/29 09:59:13;;;;;;;9.00;7.53;;;;;;;6.94;72.34;99924.63;5051553;28;20196;-54
2023/01/29 10:01:51;;;;;;;9.70;8.17;;;;;;;7.00;72.03;99925.72;5051332;28;20226;-54
2023/01/29 10:04:57;;;;;;;9.40;7.57;;;;;;;6.97;71.91;99937.53;5051321;28;20194;-55
2023/01/29 10:07:55;;;;;;;10.50;7.67;;;;;;;6.95;71.87;99926.38;5051119;28;20258;-54
2023/01/29 10:10:29;;;;;;;8.50;7.60;;;;;;;6.95;71.73;99926.38;5050929;28;20196;-54
2023/01/29 10:13:05;;;;;;;10.00;7.47;;;;;;;6.69;71.60;99897.31;5051422;28;20212;-54
2023/01/29 10:15:44;;;;;;;8.10;7.07;;;;;;;6.84;72.36;99913.19;5051585;28;20198;-54
2023/01/29 10:18:33;;;;;;;8.47;7.57;;;;;;;7.04;71.48;99912.25;5050983;28;20191;-54
2023/01/29 10:21:16;;;;;;;12.00;9.38;;;;;;;6.69;70.21;99830.03;5006931;28;20443;-55
2023/01/29 10:23:47;;;;;;;16.27;8.37;;;;;;;7.27;70.02;99904.56;5051153;28;20678;-54
2023/01/29 10:26:14;;;;;;;8.70;7.50;;;;;;;7.24;69.51;99905.31;5051038;28;20199;-54
2023/01/29 10:28:45;;;;;;;8.70;7.20;;;;;;;7.24;69.28;99900.19;5050879;28;20245;-54
2023/01/29 10:31:17;;;;;;;11.53;7.90;;;;;;;7.27;69.35;99882.44;5051285;28;20609;-53
2023/01/29 10:33:50;;;;;;;8.77;7.87;;;;;;;7.42;68.92;99900.84;5050980;28;20199;-54
2023/01/29 10:36:22;;;;;;;11.87;7.70;;;;;;;7.57;68.36;99897.94;5051665;28;20226;-55
2023/01/29 10:38:50;;;;;;;10.00;8.93;;;;;;;7.39;67.89;99870.06;5051386;28;20255;-54
2023/01/29 10:41:40;;;;;;;9.50;7.60;;;;;;;7.75;66.54;99883.22;5048384;28;20219;-55
2023/01/29 10:44:22;;;;;;;8.30;7.20;;;;;;;7.74;65.80;99881.50;5045366;28;20204;-55
2023/01/29 10:47:04;;;;;;;9.00;7.90;;;;;;;7.87;65.67;99885.31;5050946;28;20195;-54
2023/01/29 10:49:49;;;;;;;13.23;7.83;;;;;;;8.01;65.58;99877.28;5051111;28;20273;-54
2023/01/29 10:52:30;;;;;;;13.27;6.97;;;;;;;8.08;64.21;99871.53;5050829;28;20199;-54
2023/01/29 10:55:08;;;;;;;8.53;7.50;;;;;;;8.05;64.65;99866.31;5050989;28;20220;-54
2023/01/29 10:57:49;;;;;;;8.07;7.20;;;;;;;8.14;64.40;99870.84;5051215;28;20192;-53
2023/01/29 11:00:22;;;;;;;10.17;7.43;;;;;;;8.00;64.32;99849.94;5050923;28;20217;-53
2023/01/29 11:02:51;;;;;;;9.23;7.83;;;;;;;8.22;63.42;99869.41;5050725;28;20191;-55
2023/01/29 11:05:28;;;;;;;8.57;7.67;;;;;;;8.11;63.34;99853.72;5050924;28;20191;-53
2023/01/29 11:08:04;;;;;;;9.87;7.60;;;;;;;8.07;63.56;99868.94;5044255;28;20202;-53
2023/01/29 11:10:37;;;;;;;7.97;6.97;;;;;;;8.01;63.33;99863.63;5050932;28;20299;-55
2023/01/29 11:13:05;;;;;;;7.87;7.07;;;;;;;8.01;63.93;99859.38;5045409;28;20194;-55
2023/01/29 11:15:33;;;;;;;9.53;8.03;;;;;;;8.05;64.23;99856.06;5035614;28;20200;-55
2023/01/29 11:18:14;;;;;;;8.77;7.67;;;;;;;8.12;63.13;99862.28;5041484;28;20189;-54
2023/01/29 11:20:42;;;;;;;8.80;7.73;;;;;;;8.10;63.07;99846.00;5048414;28;20216;-54
2023/01/29 11:23:26;;;;;;;9.17;7.60;;;;;;;8.28;62.62;99849.16;5052472;28;20325;-55
2023/01/29 11:25:55;;;;;;;11.03;7.57;;;;;;;8.28;61.90;99852.59;5053940;28;20282;-54
2023/01/29 11:28:36;;;;;;;9.03;7.67;;;;;;;8.22;62.26;99846.38;5054189;28;20257;-54
2023/01/29 11:31:04;;;;;;;11.77;7.90;;;;;;;8.16;62.05;99826.56;5048667;28;20206;-55
2023/01/29 11:33:32;;;;;;;9.80;7.97;;;;;;;8.21;62.53;99834.41;5036834;28;20226;-54
2023/01/29 11:35:58;;;;;;;7.27;6.57;;;;;;;8.21;61.81;99826.75;5033523;28;20232;-54
2023/01/29 11:38:28;;;;;;;8.87;7.83;;;;;;;7.92;62.17;99814.69;5040629;28;20201;-54
2023/01/29 11:41:06;;;;;;;10.17;7.97;;;;;;;8.15;61.82;99821.44;5036711;28;20650;-51
2023/01/29 11:43:33;;;;;;;9.20;7.23;;;;;;;8.18;61.23;99814.72;5034040;28;20210;-52
2023/01/29 11:46:03;;;;;;;10.35;9.23;;;;;;;8.40;61.18;99823.94;5036524;28;20457;-53
2023/01/29 11:48:39;;;;;;;9.23;7.67;;;;;;;8.65;60.07;99823.81;5042624;28;20196;-52
2023/01/29 11:51:07;;;;;;;8.57;7.47;;;;;;;8.65;59.32;99821.25;5034522;28;20191;-53
2023/01/29 11:53:40;;;;;;;8.77;7.43;;;;;;;8.58;59.21;99821.91;5040987;28;20200;-51
2023/01/29 11:56:20;;;;;;;8.77;7.83;;;;;;;8.62;59.16;99821.19;5033867;28;20200;-54
2023/01/29 11:58:49;;;;;;;7.23;6.40;;;;;;;8.46;58.92;99811.31;5038835;28;20693;-51
2023/01/29 12:01:23;;;;;;;8.60;7.33;;;;;;;8.40;59.65;99800.91;5054369;28;20223;-52
2023/01/29 12:03:52;;;;;;;8.23;7.27;;;;;;;8.47;58.81;99810.50;5053567;28;20245;-52
2023/01/29 12:06:22;;;;;;;9.03;7.83;;;;;;;8.53;59.11;99808.13;5047576;28;20191;-52
2023/01/29 12:08:57;;;;;;;8.57;7.67;;;;;;;8.35;59.31;99791.34;5033945;28;20604;-52
2023/01/29 12:11:29;;;;;;;10.27;8.33;;;;;;;8.38;59.03;99802.53;5033339;28;20279;-50